createdAt,value
2022-11-15T00:03:59.938Z,97982.66
2022-11-15T00:09:22.926Z,97980.41
2022-11-15T00:14:44.488Z,97976.63
2022-11-15T00:20:06.750Z,97965.06
2022-11-15T00:25:29.305Z,97967.59
2022-11-15T00:30:50.836Z,97963.34
2022-11-15T00:36:12.668Z,97974.94
2022-11-15T00:41:35.412Z,97974.53
2022-11-15T00:46:56.812Z,97960.53
2022-11-15T00:52:18.289Z,97966.72
2022-11-15T00:57:41.021Z,97960.28
2022-11-15T01:03:27.791Z,97967.28
2022-11-15T01:08:49.225Z,97967.97
2022-11-15T01:14:12.130Z,97967.00
2022-11-15T01:19:33.584Z,97960.75
2022-11-15T01:24:55.308Z,97960.75
2022-11-15T01:30:18.694Z,97944.84
2022-11-15T01:35:41.592Z,97944.69
2022-11-15T01:41:02.955Z,97945.53
2022-11-15T01:46:31.684Z,97949.75
2022-11-15T01:51:53.892Z,97946.38
2022-11-15T01:57:15.572Z,97939.91
2022-11-15T02:02:40.177Z,97933.16
2022-11-15T02:08:02.401Z,97920.59
2022-11-15T02:13:24.622Z,97923.81
2022-11-15T02:18:54.198Z,97921.50
2022-11-15T02:24:50.474Z,97923.78
2022-11-15T02:30:22.155Z,97906.47
2022-11-15T02:35:49.003Z,97904.53
2022-11-15T02:41:15.165Z,97893.44
2022-11-15T02:47:00.675Z,97887.13
2022-11-15T02:52:24.041Z,97879.63
2022-11-15T02:57:51.699Z,97873.50
2022-11-15T03:03:45.520Z,97868.09
2022-11-15T03:09:11.525Z,97872.28
2022-11-15T03:14:38.377Z,97855.00
2022-11-15T03:20:03.553Z,97862.25
2022-11-15T03:25:27.917Z,97866.41
2022-11-15T03:30:51.844Z,97860.41
2022-11-15T03:36:14.452Z,97868.81
2022-11-15T03:41:41.785Z,97868.94
2022-11-15T03:47:08.281Z,97863.78
2022-11-15T03:52:35.208Z,97868.69
2022-11-15T03:57:59.653Z,97863.78
2022-11-15T04:03:20.772Z,97869.13
2022-11-15T04:08:43.336Z,97866.91
2022-11-15T04:14:05.009Z,97870.53
2022-11-15T04:19:44.107Z,97864.22
2022-11-15T04:25:07.801Z,97860.72
2022-11-15T04:30:29.179Z,97863.97
2022-11-15T04:36:04.968Z,97859.59
2022-11-15T04:41:27.855Z,97856.81
2022-11-15T04:46:49.383Z,97860.72
2022-11-15T04:52:11.006Z,97862.78
2022-11-15T04:57:34.031Z,97856.22
2022-11-15T05:03:13.062Z,97858.72
2022-11-15T05:08:34.897Z,97866.28
2022-11-15T05:13:57.822Z,97864.59
2022-11-15T05:19:19.091Z,97859.78
2022-11-15T05:24:40.612Z,97861.59
2022-11-15T05:30:03.845Z,97857.41
2022-11-15T05:35:32.893Z,97848.81
2022-11-15T05:40:54.388Z,97854.78
2022-11-15T05:46:17.534Z,97854.19
2022-11-15T05:51:39.057Z,97854.59
2022-11-15T05:57:00.889Z,97853.44
2022-11-15T06:02:24.523Z,97860.06
2022-11-15T06:07:46.147Z,97856.81
2022-11-15T06:13:08.058Z,97857.78
2022-11-15T06:18:33.840Z,97857.94
2022-11-15T06:23:55.568Z,97857.72
2022-11-15T06:29:16.853Z,97863.44
2022-11-15T06:34:39.952Z,97888.75
2022-11-15T06:40:01.540Z,97886.09
2022-11-15T06:45:22.973Z,97879.28
2022-11-15T06:50:52.711Z,97882.38
2022-11-15T06:56:14.233Z,97887.16
2022-11-15T07:01:35.907Z,97892.72
2022-11-15T07:06:58.869Z,97881.41
2022-11-15T07:12:20.313Z,97889.47
2022-11-15T07:17:42.522Z,97881.84
2022-11-15T07:23:07.117Z,97882.69
2022-11-15T07:28:29.340Z,97882.59
2022-11-15T07:33:50.937Z,97875.75
2022-11-15T07:39:15.060Z,97885.44
2022-11-15T07:44:36.570Z,97880.28
2022-11-15T07:49:58.245Z,97874.97
2022-11-15T07:55:21.442Z,97872.91
2022-11-15T08:00:43.554Z,97880.59
2022-11-15T08:06:06.932Z,97887.06
2022-11-15T08:11:29.746Z,97872.63
2022-11-15T08:16:50.983Z,97877.69
2022-11-15T08:22:12.880Z,97866.88
2022-11-15T08:27:35.900Z,97878.91
2022-11-15T08:33:00.284Z,97864.84
2022-11-15T08:38:22.032Z,97865.97
2022-11-15T08:43:44.766Z,97861.19
2022-11-15T08:49:06.453Z,97860.59
2022-11-15T08:54:27.946Z,97857.22
2022-11-15T08:59:50.910Z,97857.88
2022-11-15T09:05:12.279Z,97849.94
2022-11-15T09:10:33.720Z,97854.31
2022-11-15T09:15:59.449Z,97858.47
2022-11-15T09:21:23.566Z,97843.56
2022-11-15T09:26:45.607Z,97846.69
2022-11-15T09:32:08.416Z,97846.31
2022-11-15T09:37:29.671Z,97838.63
2022-11-15T09:43:06.551Z,97836.31
2022-11-15T09:48:51.024Z,97836.16
2022-11-15T09:54:51.502Z,97835.09
2022-11-15T09:59:55.901Z,97824.78
2022-11-15T10:05:01.657Z,97819.09
2022-11-15T10:10:14.233Z,97809.72
2022-11-15T10:15:23.486Z,97807.00
2022-11-15T10:20:31.051Z,97798.25
2022-11-15T10:25:35.463Z,97785.63
2022-11-15T10:30:40.319Z,97779.41
2022-11-15T10:35:45.102Z,97772.75
2022-11-15T10:40:47.851Z,97758.94
2022-11-15T10:45:51.720Z,97750.63
2022-11-15T10:50:56.960Z,97744.44
2022-11-15T10:56:06.702Z,97738.34
2022-11-15T11:01:16.352Z,97732.78
2022-11-15T11:06:20.689Z,97735.72
2022-11-15T11:11:23.420Z,97716.53
2022-11-15T11:16:43.267Z,97711.69
2022-11-15T11:21:51.533Z,97703.31
2022-11-15T11:27:11.182Z,97701.28
2022-11-15T11:32:30.037Z,97688.06
2022-11-15T11:37:41.879Z,97682.78
2022-11-15T11:42:55.077Z,97677.41
2022-11-15T11:48:09.730Z,97676.03
2022-11-15T11:53:17.131Z,97661.06
2022-11-15T11:58:28.198Z,97663.44
2022-11-15T12:03:39.047Z,97645.47
2022-11-15T12:08:48.448Z,97650.59
2022-11-15T12:13:57.053Z,97650.38
2022-11-15T12:19:03.442Z,97648.75
2022-11-15T12:24:14.747Z,97642.88
2022-11-15T12:29:22.289Z,97643.66
2022-11-15T12:34:42.274Z,97625.34
2022-11-15T12:40:19.778Z,97626.41
2022-11-15T12:45:30.123Z,97628.84
2022-11-15T12:50:55.787Z,97607.09
2022-11-15T12:56:21.893Z,97607.56
2022-11-15T13:02:02.374Z,97593.53
2022-11-15T13:07:08.554Z,97593.03
2022-11-15T13:12:35.862Z,97584.19
2022-11-15T13:17:41.155Z,97573.81
2022-11-15T13:22:52.629Z,97572.97
2022-11-15T13:28:00.361Z,97552.41
2022-11-15T13:33:12.133Z,97556.91
2022-11-15T13:38:21.823Z,97542.22
2022-11-15T13:43:37.386Z,97541.19
2022-11-15T13:48:41.200Z,97525.34
2022-11-15T13:53:48.543Z,97517.47
2022-11-15T13:58:54.001Z,97511.59
2022-11-15T14:03:58.991Z,97507.28
2022-11-15T14:09:32.125Z,97507.28
2022-11-15T14:14:46.873Z,97498.88
2022-11-15T14:19:50.590Z,97485.88
2022-11-15T14:25:19.979Z,97479.81
2022-11-15T14:30:24.167Z,97478.66
2022-11-15T14:35:27.825Z,97468.97
2022-11-15T14:40:32.466Z,97458.25
2022-11-15T14:45:37.107Z,97449.88
2022-11-15T14:50:40.744Z,97441.19
2022-11-15T14:55:43.569Z,97435.03
2022-11-15T15:00:47.899Z,97430.97
2022-11-15T15:05:52.456Z,97424.13
2022-11-15T15:10:56.029Z,97420.94
2022-11-15T15:16:00.914Z,97417.94
2022-11-15T15:21:07.967Z,97418.78
2022-11-15T15:26:11.309Z,97414.22
2022-11-15T15:31:15.926Z,97410.91
2022-11-15T15:36:20.614Z,97406.34
2022-11-15T15:41:23.594Z,97399.81
2022-11-15T15:46:27.770Z,97399.34
2022-11-15T15:51:30.579Z,97398.47
2022-11-15T15:56:33.448Z,97390.78
2022-11-15T16:01:37.581Z,97387.59
2022-11-15T16:06:45.061Z,97382.56
2022-11-15T16:11:48.954Z,97374.22
2022-11-15T16:16:53.169Z,97380.88
2022-11-15T16:21:55.892Z,97382.88
2022-11-15T16:26:59.040Z,97365.66
2022-11-15T16:32:03.221Z,97345.81
2022-11-15T16:37:07.100Z,97346.81
2022-11-15T16:42:09.995Z,97353.44
2022-11-15T16:47:19.436Z,97344.97
2022-11-15T16:52:22.184Z,97349.13
2022-11-15T16:57:25.237Z,97338.63
2022-11-15T17:02:30.405Z,97336.28
2022-11-15T17:07:33.200Z,97345.09
2022-11-15T17:12:36.648Z,97345.28
2022-11-15T17:17:41.021Z,97330.28
2022-11-15T17:22:45.249Z,97329.59
2022-11-15T17:27:48.740Z,97319.91
2022-11-15T17:32:53.059Z,97325.41
2022-11-15T17:37:55.833Z,97311.41
2022-11-15T17:42:58.686Z,97307.09
2022-11-15T17:48:02.797Z,97307.91
2022-11-15T17:53:05.780Z,97299.91
2022-11-15T17:58:09.286Z,97293.75
2022-11-15T18:03:13.636Z,97288.91
2022-11-15T18:08:17.520Z,97293.25
2022-11-15T18:13:20.406Z,97293.97
2022-11-15T18:18:24.516Z,97284.13
2022-11-15T18:23:27.310Z,97288.63
2022-11-15T18:28:32.861Z,97286.78
2022-11-15T18:33:37.236Z,97284.28
2022-11-15T18:38:40.662Z,97277.97
2022-11-15T18:43:43.856Z,97271.47
2022-11-15T18:48:50.445Z,97273.13
2022-11-15T18:53:54.350Z,97267.97
2022-11-15T18:58:59.278Z,97253.97
2022-11-15T19:04:07.897Z,97247.13
2022-11-15T19:09:13.880Z,97243.13
2022-11-15T19:14:18.753Z,97247.91
2022-11-15T19:19:27.668Z,97244.59
2022-11-15T19:24:30.455Z,97241.09
2022-11-15T19:29:33.322Z,97241.09
2022-11-15T19:34:37.452Z,97231.59
2022-11-15T19:39:41.414Z,97221.91
2022-11-15T19:44:44.320Z,97219.25
2022-11-15T19:49:48.527Z,97218.44
2022-11-15T19:54:51.751Z,97216.59
2022-11-15T19:59:54.558Z,97216.44
2022-11-15T20:04:58.933Z,97213.09
2022-11-15T20:10:01.674Z,97206.09
2022-11-15T20:15:05.162Z,97204.44
2022-11-15T20:20:11.636Z,97192.94
2022-11-15T20:25:15.318Z,97189.75
2022-11-15T20:30:19.172Z,97184.59
2022-11-15T20:35:23.415Z,97172.28
2022-11-15T20:40:26.172Z,97170.06
2022-11-15T20:45:29.039Z,97162.41
2022-11-15T20:50:42.710Z,97163.41
2022-11-15T20:55:48.684Z,97157.25
2022-11-15T21:00:51.520Z,97157.41
2022-11-15T21:05:55.980Z,97148.44
2022-11-15T21:11:16.387Z,97145.75
2022-11-15T21:16:19.268Z,97142.28
2022-11-15T21:21:23.410Z,97136.25
2022-11-15T21:26:26.173Z,97134.59
2022-11-15T21:31:29.183Z,97132.91
2022-11-15T21:36:33.305Z,97121.44
2022-11-15T21:41:36.222Z,97123.59
2022-11-15T21:46:39.120Z,97119.25
2022-11-15T21:51:43.477Z,97114.09
2022-11-15T21:56:46.199Z,97111.59
2022-11-15T22:02:06.372Z,97101.25
2022-11-15T22:07:10.537Z,97095.94
2022-11-15T22:12:13.605Z,97094.44
2022-11-15T22:17:16.507Z,97077.94
2022-11-15T22:22:20.662Z,97073.75
2022-11-15T22:27:23.606Z,97074.25
2022-11-15T22:32:26.471Z,97064.59
2022-11-15T22:37:31.008Z,97054.75
2022-11-15T22:42:33.909Z,97045.28
2022-11-15T22:47:36.770Z,97042.63
2022-11-15T22:52:40.946Z,97037.13
2022-11-15T22:57:43.776Z,97039.09
2022-11-15T23:02:48.674Z,97045.09
2022-11-15T23:07:56.064Z,97034.59
2022-11-15T23:13:19.300Z,97025.94
2022-11-15T23:18:22.142Z,97014.78
2022-11-15T23:23:26.400Z,97020.78
2022-11-15T23:28:29.306Z,97016.78
2022-11-15T23:33:49.722Z,97006.28
2022-11-15T23:38:54.142Z,97005.47
2022-11-15T23:43:56.964Z,97002.97
2022-11-15T23:49:00.030Z,96997.81
2022-11-15T23:54:04.572Z,97000.63
2022-11-15T23:59:07.937Z,96996.13
